Time;durP1;ratioP1;P1;durP2;ratioP2;P2;SDS_P1;SDS_P2;PMS_P1;PMS_P2;Temp;Humidity;BMP_temperature;BMP_pressure;BME280_temperature;BME280_humidity;BME280_pressure;Samples;Min_cycle;Max_cycle;Signal;HPM_P1;HPM_P2
2021/11/03 00:00:10;;;;;;;5.50;4.75;;;;;;;4.52;92.83;100196.25;4830448;29;20078;-84
2021/11/03 00:02:36;;;;;;;6.10;5.47;;;;;;;4.50;92.94;100192.00;4827541;29;20038;-83
2021/11/03 00:05:01;;;;;;;5.53;5.03;;;;;;;4.49;92.84;100192.88;4830558;29;20033;-84
2021/11/03 00:07:29;;;;;;;5.78;5.18;;;;;;;4.46;93.02;100185.16;4810249;29;20356;-84
2021/11/03 00:09:58;;;;;;;6.53;5.20;;;;;;;4.46;92.94;100195.53;4830739;29;20298;-85
2021/11/03 00:12:24;;;;;;;5.15;4.75;;;;;;;4.45;92.92;100188.69;4845460;29;20057;-84
2021/11/03 00:14:49;;;;;;;9.75;5.57;;;;;;;4.41;92.80;100180.97;4846356;29;20060;-84
2021/11/03 00:17:15;;;;;;;6.45;5.30;;;;;;;4.40;92.89;100184.47;4856973;29;20049;-84
2021/11/03 00:19:40;;;;;;;7.85;5.10;;;;;;;4.39;93.00;100187.09;4856567;29;20047;-84
2021/11/03 00:22:06;;;;;;;5.78;4.72;;;;;;;4.39;93.00;100182.75;4827280;29;20040;-84
2021/11/03 00:24:34;;;;;;;7.63;5.15;;;;;;;4.40;93.12;100183.59;4864575;29;20235;-84
2021/11/03 00:27:00;;;;;;;9.40;5.68;;;;;;;4.42;93.19;100177.50;4822817;29;20345;-84
2021/11/03 00:29:25;;;;;;;6.53;5.80;;;;;;;4.45;93.41;100176.56;4824585;29;20225;-84
2021/11/03 00:31:51;;;;;;;6.03;5.50;;;;;;;4.48;93.29;100184.25;4841066;29;20033;-83
2021/11/03 00:34:17;;;;;;;7.25;5.60;;;;;;;4.50;93.68;100182.47;4845343;29;20041;-82
2021/11/03 00:36:42;;;;;;;8.52;5.75;;;;;;;4.53;93.60;100186.72;4840266;29;20279;-84
2021/11/03 00:39:07;;;;;;;7.80;5.95;;;;;;;4.55;93.92;100185.81;4823964;29;20077;-84
2021/11/03 00:41:33;;;;;;;6.57;5.57;;;;;;;4.60;93.90;100190.84;4862690;29;20371;-83
2021/11/03 00:43:58;;;;;;;6.53;5.65;;;;;;;4.62;94.22;100191.69;4845790;29;20041;-84
2021/11/03 00:46:24;;;;;;;7.88;6.10;;;;;;;4.64;94.20;100182.13;4815298;29;20033;-83
2021/11/03 00:48:49;;;;;;;6.32;5.70;;;;;;;4.64;94.26;100182.13;4854729;29;20041;-84
2021/11/03 00:51:15;;;;;;;6.03;5.03;;;;;;;4.64;94.24;100191.63;4833380;29;20221;-84
2021/11/03 00:53:40;;;;;;;5.70;5.15;;;;;;;4.60;93.98;100188.25;4865591;29;20045;-84
2021/11/03 00:56:06;;;;;;;8.90;4.63;;;;;;;4.57;93.89;100185.78;4864530;29;20038;-84
2021/11/03 00:58:31;;;;;;;5.30;4.80;;;;;;;4.56;93.92;100189.25;4864583;29;20078;-84
2021/11/03 01:00:56;;;;;;;5.25;4.70;;;;;;;4.53;93.72;100192.78;4848407;29;20376;-84
2021/11/03 01:03:22;;;;;;;4.93;4.53;;;;;;;4.53;93.63;100191.91;4848155;29;20060;-84
2021/11/03 01:05:47;;;;;;;5.90;5.35;;;;;;;4.51;93.62;100189.38;4833718;29;20331;-84
2021/11/03 01:08:13;;;;;;;9.45;5.45;;;;;;;4.48;93.50;100209.34;4865021;29;20044;-84
2021/11/03 01:10:40;;;;;;;15.18;9.00;;;;;;;4.46;93.38;100204.19;4848774;29;20060;-84
2021/11/03 01:13:06;;;;;;;9.70;7.60;;;;;;;4.50;93.42;100198.03;4833635;29;20075;-84
2021/11/03 01:15:31;;;;;;;10.30;8.38;;;;;;;4.55;93.72;100192.75;4856891;29;20041;-84
2021/11/03 01:17:56;;;;;;;12.73;8.25;;;;;;;4.56;93.86;100197.03;4849969;29;20108;-84
2021/11/03 01:20:22;;;;;;;20.92;8.30;;;;;;;4.57;94.08;100209.94;4833433;29;20136;-84
2021/11/03 01:22:48;;;;;;;9.50;7.32;;;;;;;4.63;94.11;100206.34;4848672;29;20084;-84
2021/11/03 01:25:14;;;;;;;15.27;9.30;;;;;;;4.70;94.45;100201.84;4848518;29;20232;-84
2021/11/03 01:27:39;;;;;;;12.75;7.97;;;;;;;4.70;94.34;100194.91;4833485;29;20117;-84
2021/11/03 01:30:05;;;;;;;9.40;7.38;;;;;;;4.69;94.16;100197.53;4817877;29;20041;-84
2021/11/03 01:32:30;;;;;;;9.88;7.32;;;;;;;4.68;94.06;100209.69;4834284;29;20301;-84
2021/11/03 01:34:56;;;;;;;8.25;7.40;;;;;;;4.72;94.17;100208.69;4852330;29;20042;-84
2021/11/03 01:37:22;;;;;;;9.48;7.30;;;;;;;4.74;94.38;100200.88;4868206;29;20537;-84
2021/11/03 01:39:47;;;;;;;7.60;6.90;;;;;;;4.74;94.21;100199.13;4852090;29;20133;-84
2021/11/03 01:42:12;;;;;;;8.70;7.90;;;;;;;4.74;94.15;100200.88;4851826;29;20104;-84
2021/11/03 01:44:38;;;;;;;9.25;7.80;;;;;;;4.73;94.13;100209.53;4850435;29;20267;-83
2021/11/03 01:47:37;;;;;;;8.52;7.15;;;;;;;4.72;94.16;100208.69;4851869;29;20289;-84
2021/11/03 01:50:08;;;;;;;10.90;7.45;;;;;;;4.67;93.80;100205.38;4868881;29;20135;-84
2021/11/03 01:52:33;;;;;;;11.23;7.15;;;;;;;4.61;93.70;100214.16;4848266;29;20072;-84
2021/11/03 01:54:59;;;;;;;8.15;7.32;;;;;;;4.60;93.69;100214.19;4836676;29;20340;-84
2021/11/03 01:57:33;;;;;;;9.77;7.78;;;;;;;4.55;93.65;100218.69;4850270;29;20041;-83
2021/11/03 02:00:00;;;;;;;7.57;6.88;;;;;;;4.52;93.36;100223.94;4850974;29;20352;-84
2021/11/03 02:02:25;;;;;;;8.15;7.00;;;;;;;4.47;93.47;100205.03;4836251;29;20235;-84
2021/11/03 02:04:51;;;;;;;7.85;7.07;;;;;;;4.45;93.46;100212.84;4846939;29;20112;-84
2021/11/03 02:07:18;;;;;;;8.38;7.25;;;;;;;4.43;93.28;100204.25;4851246;29;20051;-84
2021/11/03 02:09:44;;;;;;;8.73;6.80;;;;;;;4.42;93.28;100207.75;4835575;29;20045;-84
2021/11/03 02:12:20;;;;;;;8.88;7.40;;;;;;;4.40;93.57;100206.94;4868555;29;20050;-84
2021/11/03 02:14:46;;;;;;;8.65;6.75;;;;;;;4.35;93.43;100201.88;4842746;29;20041;-84
2021/11/03 02:17:12;;;;;;;8.02;6.38;;;;;;;4.32;93.27;100204.53;4836295;29;20053;-83
2021/11/03 02:19:38;;;;;;;7.15;6.22;;;;;;;4.28;93.02;100191.72;4835041;29;20625;-84
2021/11/03 02:22:07;;;;;;;8.25;7.15;;;;;;;4.25;93.13;100194.38;4868105;29;20021;-84
2021/11/03 02:24:40;;;;;;;6.95;6.10;;;;;;;4.19;92.88;100196.22;4835498;29;20271;-84
2021/11/03 02:27:05;;;;;;;6.50;5.95;;;;;;;4.21;93.11;100193.59;4836366;29;20107;-84
2021/11/03 02:29:31;;;;;;;7.57;6.63;;;;;;;4.21;93.31;100191.00;4834926;29;20694;-84
2021/11/03 02:31:58;;;;;;;6.88;6.18;;;;;;;4.21;93.51;100189.25;4836224;29;20045;-84
2021/11/03 02:34:28;;;;;;;9.05;6.60;;;;;;;4.22;93.48;100187.50;4835708;29;20343;-83
2021/11/03 02:36:59;;;;;;;7.00;6.30;;;;;;;4.25;93.52;100189.19;4851359;29;20359;-84
2021/11/03 02:39:41;;;;;;;8.30;7.40;;;;;;;4.25;93.62;100192.63;4835976;29;20329;-84
2021/11/03 02:42:06;;;;;;;7.15;6.45;;;;;;;4.23;93.65;100179.69;4821729;29;20033;-84
2021/11/03 02:44:32;;;;;;;7.55;6.80;;;;;;;4.22;93.68;100177.13;4833690;29;20225;-84
2021/11/03 02:46:58;;;;;;;6.65;6.00;;;;;;;4.20;93.55;100171.13;4835920;29;20025;-84
2021/11/03 02:49:23;;;;;;;8.20;6.70;;;;;;;4.20;93.75;100176.31;4850874;29;20049;-83
2021/11/03 02:51:49;;;;;;;7.18;6.55;;;;;;;4.22;93.92;100161.56;4850963;29;20037;-84
2021/11/03 02:54:18;;;;;;;9.70;7.47;;;;;;;4.26;94.05;100154.56;4867523;29;20073;-83
2021/11/03 02:56:48;;;;;;;8.27;7.55;;;;;;;4.27;94.09;100157.13;4835884;29;20359;-84
2021/11/03 02:59:15;;;;;;;8.43;7.28;;;;;;;4.27;94.12;100151.94;4831848;29;20034;-84
2021/11/03 03:01:52;;;;;;;10.05;7.70;;;;;;;4.27;94.04;100154.53;4850758;29;20076;-84
2021/11/03 03:04:21;;;;;;;8.30;7.20;;;;;;;4.28;94.00;100137.28;4834416;29;20048;-84
2021/11/03 03:06:46;;;;;;;;;;;;;;;4.26;94.03;100132.13;4851156;29;20041;-84
2021/11/03 03:09:12;;;;;;;7.23;6.47;;;;;;;4.25;94.04;100142.53;4867331;29;19999;-84
2021/11/03 03:11:39;;;;;;;7.93;7.13;;;;;;;4.24;94.07;100133.91;4820390;29;20304;-84
2021/11/03 03:14:05;;;;;;;7.70;7.00;;;;;;;4.21;94.12;100133.97;4835283;29;20045;-84
2021/11/03 03:16:30;;;;;;;8.25;7.32;;;;;;;4.18;94.00;100131.44;4820088;29;20037;-84
2021/11/03 03:18:56;;;;;;;8.15;7.35;;;;;;;4.16;93.93;100141.84;4850850;29;20068;-84
2021/11/03 03:21:22;;;;;;;9.43;7.40;;;;;;;4.11;93.78;100135.97;4850223;29;20044;-84
2021/11/03 03:23:47;;;;;;;7.72;6.97;;;;;;;4.08;93.79;100137.78;4850693;29;20045;-83
2021/11/03 03:26:14;;;;;;;10.88;6.57;;;;;;;4.01;93.56;100137.91;4835368;29;20355;-84
2021/11/03 03:28:40;;;;;;;8.00;6.80;;;;;;;4.01;93.69;100134.47;4833733;29;20054;-84
2021/11/03 03:31:06;;;;;;;8.57;7.70;;;;;;;3.97;93.70;100135.44;4831395;29;20034;-84
2021/11/03 03:33:31;;;;;;;7.57;6.20;;;;;;;3.98;93.63;100134.53;4848610;29;20675;-82
2021/11/03 03:35:56;;;;;;;8.05;7.35;;;;;;;3.96;93.68;100133.75;4867211;29;20049;-82
2021/11/03 03:38:22;;;;;;;7.72;6.93;;;;;;;3.93;93.58;100133.81;4849804;29;20038;-82
2021/11/03 03:40:47;;;;;;;7.50;5.90;;;;;;;3.89;93.50;100137.38;4850103;29;20231;-84
2021/11/03 03:43:13;;;;;;;6.68;6.18;;;;;;;3.87;93.57;100140.00;4850302;29;20033;-84
2021/11/03 03:45:38;;;;;;;9.27;7.38;;;;;;;3.88;93.64;100139.13;4833920;29;20054;-84
2021/11/03 03:48:04;;;;;;;6.97;6.28;;;;;;;3.89;93.78;100145.13;4850327;29;20358;-83
2021/11/03 03:50:30;;;;;;;5.93;5.50;;;;;;;3.87;93.71;100144.31;4849351;29;20083;-84
2021/11/03 03:52:55;;;;;;;7.18;5.90;;;;;;;3.83;93.61;100159.94;4834872;29;20037;-83
2021/11/03 03:55:21;;;;;;;6.30;5.80;;;;;;;3.75;93.43;100159.28;4848554;29;20056;-84
2021/11/03 03:57:46;;;;;;;7.40;6.20;;;;;;;3.70;93.36;100168.03;4849803;29;20380;-84
2021/11/03 04:00:15;;;;;;;6.70;6.10;;;;;;;3.68;93.35;100165.50;4849227;29;20057;-83
2021/11/03 04:02:41;;;;;;;;;;;;;;;3.68;93.48;100170.66;4819724;29;20387;-84
2021/11/03 04:05:07;;;;;;;6.60;6.03;;;;;;;3.67;93.50;100170.69;4866735;29;20107;-84
2021/11/03 04:07:32;;;;;;;6.32;5.72;;;;;;;3.64;93.36;100175.06;4865888;29;20052;-83
2021/11/03 04:09:57;;;;;;;7.97;6.18;;;;;;;3.62;93.44;100169.06;4819101;29;20056;-83
2021/11/03 04:12:23;;;;;;;6.32;5.82;;;;;;;3.61;93.47;100175.13;4833921;29;20045;-84
2021/11/03 04:14:48;;;;;;;7.07;6.38;;;;;;;3.62;93.47;100178.56;4833229;29;20037;-83
2021/11/03 04:17:14;;;;;;;7.38;6.60;;;;;;;3.58;93.55;100190.72;4849650;29;20037;-84
2021/11/03 04:19:39;;;;;;;7.80;7.07;;;;;;;3.58;93.44;100192.47;4834069;29;20077;-84
2021/11/03 04:22:05;;;;;;;7.85;7.18;;;;;;;3.56;93.45;100192.50;4849228;29;20347;-84
2021/11/03 04:24:31;;;;;;;8.80;7.03;;;;;;;3.59;93.41;100195.03;4848785;29;20037;-84
2021/11/03 04:26:56;;;;;;;7.60;6.90;;;;;;;3.61;93.72;100190.66;4865798;29;20378;-84
2021/11/03 04:29:22;;;;;;;8.23;7.53;;;;;;;3.67;93.89;100199.19;4847807;29;20049;-84
2021/11/03 04:31:47;;;;;;;8.43;7.63;;;;;;;3.69;94.04;100190.47;4818537;29;20045;-84
2021/11/03 04:34:13;;;;;;;8.63;7.78;;;;;;;3.73;94.19;100210.25;4818898;29;20032;-84
2021/11/03 04:36:38;;;;;;;8.18;7.38;;;;;;;3.75;94.28;100203.31;4833492;29;20094;-84
2021/11/03 04:39:05;;;;;;;8.00;7.30;;;;;;;3.78;94.48;100205.84;4848997;29;20283;-84
2021/11/03 04:41:30;;;;;;;9.15;8.20;;;;;;;3.81;94.64;100212.66;4848844;29;20037;-83
2021/11/03 04:43:56;;;;;;;10.00;8.15;;;;;;;3.84;94.70;100208.28;4832932;29;20037;-83
2021/11/03 04:46:22;;;;;;;11.60;9.20;;;;;;;3.88;94.78;100209.06;4865398;29;20303;-84
2021/11/03 04:48:47;;;;;;;10.93;9.23;;;;;;;3.90;95.10;100209.03;4848826;29;20037;-84
2021/11/03 04:51:13;;;;;;;10.90;9.77;;;;;;;3.92;95.17;100209.84;4848743;29;20379;-84
2021/11/03 04:53:38;;;;;;;14.65;9.75;;;;;;;3.94;95.21;100211.50;4848920;29;20045;-84
2021/11/03 04:56:04;;;;;;;14.52;10.90;;;;;;;3.98;95.28;100214.88;4849242;29;20026;-83
2021/11/03 04:58:30;;;;;;;14.27;10.70;;;;;;;4.00;95.25;100215.69;4833584;29;20076;-84
2021/11/03 05:00:55;;;;;;;11.85;9.93;;;;;;;4.01;95.35;100222.56;4848313;29;20256;-84
2021/11/03 05:03:21;;;;;;;11.30;9.45;;;;;;;4.02;95.28;100226.84;4832985;29;20105;-83
2021/11/03 05:05:47;;;;;;;12.27;10.35;;;;;;;4.03;95.36;100220.78;4865530;29;20043;-84
2021/11/03 05:08:13;;;;;;;14.52;10.18;;;;;;;4.03;95.27;100223.38;4851871;29;20048;-84
2021/11/03 05:10:38;;;;;;;14.43;11.13;;;;;;;4.03;95.30;100221.63;4837141;29;20061;-83
2021/11/03 05:13:04;;;;;;;17.38;11.35;;;;;;;4.06;95.25;100223.31;4852731;29;20045;-84
2021/11/03 05:15:29;;;;;;;17.90;12.05;;;;;;;4.08;95.30;100225.88;4850349;29;20037;-84
2021/11/03 05:17:55;;;;;;;18.08;12.80;;;;;;;4.08;95.43;100221.53;4869555;29;20049;-84
2021/11/03 05:20:20;;;;;;;13.68;11.75;;;;;;;4.08;95.30;100224.13;4867474;29;20041;-84
2021/11/03 05:22:47;;;;;;;17.40;12.75;;;;;;;4.08;95.28;100231.06;4852627;29;20337;-84
2021/11/03 05:25:15;;;;;;;16.67;12.77;;;;;;;4.07;95.28;100221.56;4837819;29;20209;-83
2021/11/03 05:27:40;;;;;;;18.85;13.82;;;;;;;4.07;95.11;100218.97;4837146;29;20060;-84
2021/11/03 05:30:06;;;;;;;18.67;13.77;;;;;;;4.06;95.17;100225.03;4867087;29;20085;-84
2021/11/03 05:32:32;;;;;;;18.38;13.57;;;;;;;4.07;95.24;100224.16;4868168;29;20045;-84
2021/11/03 05:34:57;;;;;;;21.98;13.95;;;;;;;4.06;95.11;100232.81;4867258;29;20375;-84
2021/11/03 05:37:23;;;;;;;18.60;14.07;;;;;;;4.01;95.03;100231.19;4836436;29;20060;-84
2021/11/03 05:39:48;;;;;;;17.10;13.70;;;;;;;4.01;94.94;100231.19;4852467;29;20054;-83
2021/11/03 05:42:13;;;;;;;16.33;13.02;;;;;;;3.98;95.06;100226.09;4851829;29;20097;-84
2021/11/03 05:44:39;;;;;;;16.38;12.57;;;;;;;3.97;94.90;100223.53;4821020;29;20381;-84
2021/11/03 05:47:04;;;;;;;15.00;12.73;;;;;;;3.97;94.92;100224.38;4851601;29;20052;-83
2021/11/03 05:49:32;;;;;;;14.93;11.88;;;;;;;3.96;94.88;100221.81;4868254;29;20297;-84
2021/11/03 05:51:58;;;;;;;16.27;12.50;;;;;;;3.92;94.89;100215.84;4837011;29;20310;-84
2021/11/03 05:54:26;;;;;;;19.70;13.50;;;;;;;3.91;94.74;100224.53;4851477;29;20234;-83
2021/11/03 05:56:52;;;;;;;19.55;13.73;;;;;;;3.90;94.83;100220.22;4852481;29;20041;-84
2021/11/03 05:59:17;;;;;;;21.30;13.73;;;;;;;3.91;94.74;100223.66;4867221;29;20053;-84
2021/11/03 06:01:42;;;;;;;20.10;14.40;;;;;;;3.89;94.75;100226.28;4851538;29;20356;-84
2021/11/03 06:04:08;;;;;;;17.42;13.30;;;;;;;3.87;94.33;100222.03;4852051;29;20101;-83
2021/11/03 06:06:34;;;;;;;19.00;13.30;;;;;;;3.84;94.70;100218.63;4851227;29;20021;-84
2021/11/03 06:08:59;;;;;;;17.92;13.77;;;;;;;3.84;94.59;100222.97;4832835;29;20066;-84
2021/11/03 06:11:26;;;;;;;18.88;14.15;;;;;;;3.85;94.58;100222.06;4839694;29;20356;-84
2021/11/03 06:13:52;;;;;;;18.45;13.95;;;;;;;3.83;94.67;100224.69;4851598;29;20053;-84
2021/11/03 06:16:17;;;;;;;18.65;13.95;;;;;;;3.83;94.74;100218.66;4835659;29;20122;-84
2021/11/03 06:18:43;;;;;;;17.00;14.07;;;;;;;3.82;94.76;100217.81;4849796;29;20045;-84
2021/11/03 06:21:08;;;;;;;17.17;14.15;;;;;;;3.83;94.69;100222.09;4868389;29;20297;-84
2021/11/03 06:23:33;;;;;;;20.38;14.73;;;;;;;3.84;94.59;100225.56;4834454;29;20033;-83
2021/11/03 06:25:59;;;;;;;24.30;15.60;;;;;;;3.81;94.69;100223.03;4851071;29;20037;-83
2021/11/03 06:28:25;;;;;;;23.15;16.83;;;;;;;3.79;94.62;100230.00;4850979;29;20053;-84
2021/11/03 06:30:50;;;;;;;25.23;16.42;;;;;;;3.79;94.55;100224.81;4832937;29;20025;-84
2021/11/03 06:33:16;;;;;;;20.38;15.68;;;;;;;3.79;94.61;100232.59;4839348;29;20049;-84
2021/11/03 06:35:42;;;;;;;22.25;16.60;;;;;;;3.79;94.44;100230.00;4849044;29;20045;-84
2021/11/03 06:38:09;;;;;;;40.85;25.25;;;;;;;3.77;94.48;100221.41;4845718;29;20141;-84
2021/11/03 06:40:35;;;;;;;24.08;17.33;;;;;;;3.78;94.57;100225.69;4828405;29;20049;-83
2021/11/03 06:43:01;;;;;;;25.20;17.48;;;;;;;3.79;94.46;100228.25;4839182;29;20045;-83
2021/11/03 06:45:26;;;;;;;21.02;16.10;;;;;;;3.81;94.72;100225.63;4825450;29;20479;-84
2021/11/03 06:47:52;;;;;;;23.35;15.13;;;;;;;3.79;94.71;100223.06;4824959;29;20037;-83
2021/11/03 06:50:23;;;;;;;21.63;14.57;;;;;;;3.77;94.35;100216.22;4825508;29;20337;-84
2021/11/03 06:52:50;;;;;;;16.25;12.73;;;;;;;3.74;94.44;100224.06;4812244;29;20041;-84
2021/11/03 06:55:15;;;;;;;16.60;13.45;;;;;;;3.69;94.45;100225.88;4831355;29;20033;-83
2021/11/03 06:57:41;;;;;;;20.02;14.48;;;;;;;3.64;94.28;100226.00;4838909;29;20051;-83
2021/11/03 07:00:08;;;;;;;19.45;14.32;;;;;;;3.62;94.23;100225.16;4824543;29;20068;-83
2021/11/03 07:02:33;;;;;;;19.33;13.38;;;;;;;3.59;94.28;100220.06;4840253;29;20041;-83
2021/11/03 07:04:59;;;;;;;25.23;13.10;;;;;;;3.53;93.89;100220.19;4839750;29;20036;-83
2021/11/03 07:07:24;;;;;;;18.58;13.75;;;;;;;3.51;94.00;100220.25;4841473;29;20313;-83
2021/11/03 07:09:50;;;;;;;18.35;13.63;;;;;;;3.49;93.84;100215.97;4838318;29;20061;-83
2021/11/03 07:12:15;;;;;;;19.38;14.35;;;;;;;3.49;94.07;100216.81;4844043;29;20073;-84
2021/11/03 07:14:41;;;;;;;22.67;14.27;;;;;;;3.48;93.89;100215.13;4853359;29;20068;-83
2021/11/03 07:17:11;;;;;;;23.02;14.27;;;;;;;3.46;94.00;100216.91;4860539;29;20056;-84
2021/11/03 07:19:36;;;;;;;18.67;14.13;;;;;;;3.46;94.13;100222.06;4829531;29;20077;-84
2021/11/03 07:22:02;;;;;;;17.23;14.07;;;;;;;3.43;94.05;100225.56;4855204;29;20041;-83
2021/11/03 07:24:27;;;;;;;21.55;14.32;;;;;;;3.43;94.02;100225.56;4840613;29;20112;-83
2021/11/03 07:26:52;;;;;;;24.23;15.30;;;;;;;3.43;94.05;100229.91;4864427;29;20097;-83
2021/11/03 07:29:18;;;;;;;19.05;14.30;;;;;;;3.44;94.19;100237.63;4847572;29;20044;-84
2021/11/03 07:31:43;;;;;;;21.95;14.98;;;;;;;3.47;94.19;100239.28;4818223;29;20052;-83
2021/11/03 07:34:09;;;;;;;22.70;15.10;;;;;;;3.48;94.26;100238.44;4826048;29;20056;-83
2021/11/03 07:36:36;;;;;;;15.27;13.55;;;;;;;3.48;94.17;100245.34;4846826;29;20045;-84
2021/11/03 07:39:01;;;;;;;19.50;14.40;;;;;;;3.46;94.07;100242.78;4839997;29;20045;-83
2021/11/03 07:41:27;;;;;;;22.20;14.48;;;;;;;3.45;94.11;100244.50;4842951;29;20089;-83
2021/11/03 07:43:52;;;;;;;17.73;14.02;;;;;;;3.45;94.21;100247.09;4848186;29;20052;-83
2021/11/03 07:46:18;;;;;;;18.65;14.13;;;;;;;3.47;94.37;100252.25;4834857;29;20047;-83
2021/11/03 07:48:44;;;;;;;17.65;13.48;;;;;;;3.45;94.29;100248.84;4844934;29;20316;-83
2021/11/03 07:51:13;;;;;;;17.88;13.38;;;;;;;3.48;94.55;100253.13;4825909;29;20038;-83
2021/11/03 07:53:38;;;;;;;;;;;;;;;3.48;94.74;100256.53;4828591;29;20047;-83
2021/11/03 07:56:06;;;;;;;18.02;13.65;;;;;;;3.45;94.38;100254.00;4838969;29;19959;-83
2021/11/03 07:58:34;;;;;;;21.35;14.68;;;;;;;3.47;94.55;100254.81;4825486;29;20045;-83
2021/11/03 08:00:59;;;;;;;20.27;15.50;;;;;;;3.49;94.72;100259.97;4842531;29;20241;-84
2021/11/03 08:03:26;;;;;;;20.90;14.80;;;;;;;3.51;94.62;100266.84;4846827;29;20028;-83
2021/11/03 08:05:53;;;;;;;20.85;15.50;;;;;;;3.58;94.96;100262.38;4828496;29;20062;-84
2021/11/03 08:08:20;;;;;;;18.52;15.35;;;;;;;3.64;95.29;100270.88;4827217;29;20041;-83
2021/11/03 08:10:46;;;;;;;23.65;17.15;;;;;;;3.71;95.56;100265.56;4825110;29;20045;-83
2021/11/03 08:13:18;;;;;;;24.98;17.20;;;;;;;3.75;95.54;100273.25;4839874;29;20074;-84
2021/11/03 08:15:45;;;;;;;33.03;17.38;;;;;;;3.78;95.35;100270.59;4811064;29;20037;-83
2021/11/03 08:18:11;;;;;;;27.08;18.52;;;;;;;3.82;95.36;100273.94;4825486;29;20064;-83
2021/11/03 08:20:37;;;;;;;23.00;16.58;;;;;;;3.83;95.70;100275.66;4855321;29;20556;-83
2021/11/03 08:23:03;;;;;;;24.20;18.05;;;;;;;3.84;95.64;100272.19;4810931;29;20100;-83
2021/11/03 08:25:28;;;;;;;25.27;18.40;;;;;;;3.84;95.57;100274.78;4841788;29;20093;-83
2021/11/03 08:27:54;;;;;;;22.02;17.10;;;;;;;3.85;95.68;100279.06;4857405;29;20120;-84
2021/11/03 08:30:19;;;;;;;22.77;17.23;;;;;;;3.88;95.83;100286.78;4827333;29;20041;-83
2021/11/03 08:32:56;;;;;;;23.75;17.38;;;;;;;3.92;95.88;100282.38;4813088;29;20088;-84
2021/11/03 08:35:22;;;;;;;26.45;17.05;;;;;;;3.96;95.97;100284.84;4825092;29;20038;-83
2021/11/03 08:37:48;;;;;;;27.10;18.55;;;;;;;4.00;95.80;100283.91;4827856;29;20089;-83
2021/11/03 08:40:15;;;;;;;23.92;18.60;;;;;;;4.04;96.02;100288.13;4830763;29;20089;-85
2021/11/03 08:42:40;;;;;;;23.80;18.30;;;;;;;4.06;96.18;100293.28;4830780;29;20048;-85
2021/11/03 08:45:07;;;;;;;27.92;20.17;;;;;;;4.10;96.13;100294.06;4836541;29;20034;-84
2021/11/03 08:47:33;;;;;;;28.70;19.30;;;;;;;4.14;96.12;100293.94;4828256;29;20233;-83
2021/11/03 08:49:58;;;;;;;29.88;18.80;;;;;;;4.18;96.21;100295.59;4841776;29;20037;-84
2021/11/03 08:52:24;;;;;;;26.10;18.80;;;;;;;4.22;96.20;100296.34;4842480;29;20222;-85
2021/11/03 08:54:49;;;;;;;31.63;20.70;;;;;;;4.27;96.33;100297.13;4842147;29;20026;-85
2021/11/03 08:57:21;;;;;;;34.30;22.15;;;;;;;4.31;96.34;100296.19;4859567;29;20064;-84
2021/11/03 08:59:50;;;;;;;37.50;21.10;;;;;;;4.38;96.53;100295.16;4831816;29;20089;-84
2021/11/03 09:02:15;;;;;;;35.47;22.83;;;;;;;4.45;96.77;100298.41;4834134;29;20030;-83
2021/11/03 09:04:41;;;;;;;31.60;22.60;;;;;;;4.51;96.83;100293.09;4842147;29;20366;-83
2021/11/03 09:07:14;;;;;;;35.15;24.02;;;;;;;4.56;96.89;100293.81;4842350;29;20291;-83
2021/11/03 09:09:42;;;;;;;39.08;24.58;;;;;;;4.61;96.91;100299.75;4831229;29;20363;-81
2021/11/03 09:12:08;;;;;;;33.50;23.48;;;;;;;4.67;96.91;100296.16;4822786;29;20060;-81
2021/11/03 09:14:33;;;;;;;39.38;25.60;;;;;;;4.72;96.87;100301.25;4839426;29;20247;-81
2021/11/03 09:16:59;;;;;;;38.22;25.20;;;;;;;4.76;96.90;100308.03;4845233;29;20053;-81
2021/11/03 09:19:24;;;;;;;41.80;25.40;;;;;;;4.81;96.98;100301.84;4839204;29;20037;-81
2021/11/03 09:21:49;;;;;;;38.05;25.98;;;;;;;4.89;97.09;100311.19;4857314;29;20049;-82
2021/11/03 09:24:15;;;;;;;41.90;26.58;;;;;;;4.96;97.08;100310.13;4860710;29;20046;-81
2021/11/03 09:26:41;;;;;;;38.78;26.10;;;;;;;5.02;97.30;100304.81;4822093;29;20056;-81
2021/11/03 09:29:06;;;;;;;41.63;26.48;;;;;;;5.10;97.14;100314.97;4830096;29;20055;-81
2021/11/03 09:31:32;;;;;;;40.85;27.27;;;;;;;5.16;97.29;100312.19;4834628;29;20588;-81
2021/11/03 09:33:58;;;;;;;41.88;27.83;;;;;;;5.23;97.43;100318.09;4830940;29;20357;-81
2021/11/03 09:36:24;;;;;;;51.38;28.50;;;;;;;5.29;97.45;100316.16;4844482;29;20041;-81
2021/11/03 09:38:49;;;;;;;50.30;29.27;;;;;;;5.35;97.53;100322.97;4866870;29;20053;-81
2021/11/03 09:41:28;;;;;;;49.35;28.08;;;;;;;5.42;97.70;100324.50;4857834;29;20076;-81
2021/11/03 09:43:54;;;;;;;;;;;;;;;5.48;97.58;100319.13;4843076;29;20237;-81
2021/11/03 09:46:40;;;;;;;42.15;27.70;;;;;;;5.55;97.96;100319.81;4855920;29;19955;-81
2021/11/03 09:49:23;;;;;;;47.08;29.33;;;;;;;5.61;97.85;100323.97;4838735;29;20037;-81
2021/11/03 09:51:52;;;;;;;44.95;29.80;;;;;;;5.66;97.96;100324.69;4822456;29;20129;-81
2021/11/03 09:54:23;;;;;;;49.35;30.17;;;;;;;5.71;98.08;100325.41;4836696;29;20252;-81
2021/11/03 09:56:59;;;;;;;52.95;29.73;;;;;;;5.74;98.00;100328.75;4842282;29;20394;-81
2021/11/03 09:59:48;;;;;;;51.63;31.38;;;;;;;5.83;97.89;100329.41;4840829;29;20046;-81
2021/11/03 10:02:17;;;;;;;;;;;;;;;5.87;97.96;100321.44;4850905;29;20096;-82
2021/11/03 10:05:10;;;;;;;47.88;30.38;;;;;;;5.94;97.93;100320.38;4848171;29;20187;-82
2021/11/03 10:08:04;;;;;;;49.40;31.15;;;;;;;6.00;98.03;100319.38;4850569;29;20052;-82
2021/11/03 10:10:33;;;;;;;53.40;30.30;;;;;;;6.05;98.23;100321.84;4860599;29;20194;-82
2021/11/03 10:12:59;;;;;;;;;;;;;;;6.09;98.06;100324.31;4830777;29;20068;-82
2021/11/03 10:15:25;;;;;;;44.22;29.83;;;;;;;6.11;97.95;100322.53;4843094;29;19947;-82
2021/11/03 10:18:16;;;;;;;50.85;30.77;;;;;;;6.18;98.12;100322.31;4828857;29;20058;-82
2021/11/03 10:20:45;;;;;;;49.03;31.30;;;;;;;6.23;98.17;100323.03;4862902;29;20391;-82
2021/11/03 10:23:22;;;;;;;46.67;30.95;;;;;;;6.27;97.96;100333.28;4833335;29;20068;-82
2021/11/03 10:25:54;;;;;;;50.85;30.33;;;;;;;6.32;98.08;100336.59;4848198;29;20041;-82
2021/11/03 10:28:40;;;;;;;52.72;31.90;;;;;;;6.37;98.22;100333.88;4848022;29;20045;-81
2021/11/03 10:31:08;;;;;;;46.92;30.35;;;;;;;6.42;97.77;100336.31;4839850;29;20337;-82
2021/11/03 10:33:41;;;;;;;45.63;30.80;;;;;;;6.46;97.78;100332.72;4826687;29;20072;-82
2021/11/03 10:36:17;;;;;;;44.95;29.10;;;;;;;6.52;97.86;100327.31;4841277;29;20310;-82
2021/11/03 10:38:48;;;;;;;46.53;30.92;;;;;;;6.59;97.73;100322.78;4860187;29;20109;-82
2021/11/03 10:41:18;;;;;;;43.22;29.70;;;;;;;6.63;97.66;100326.97;4834854;29;20352;-82
2021/11/03 10:43:44;;;;;;;43.35;28.65;;;;;;;6.67;97.50;100328.56;4834389;29;20049;-82
2021/11/03 10:46:09;;;;;;;44.45;28.80;;;;;;;6.71;97.50;100328.44;4848550;29;20047;-82
2021/11/03 10:48:34;;;;;;;43.15;28.67;;;;;;;6.77;97.11;100316.09;4847738;29;20044;-82
2021/11/03 10:51:20;;;;;;;43.63;28.80;;;;;;;6.82;97.02;100311.59;4864483;29;20052;-82
2021/11/03 10:53:52;;;;;;;43.97;29.05;;;;;;;6.88;96.76;100316.63;4827126;29;20068;-82
2021/11/03 10:56:39;;;;;;;44.42;28.35;;;;;;;6.92;96.56;100313.84;4824289;29;20033;-82
2021/11/03 10:59:21;;;;;;;35.75;26.33;;;;;;;7.00;96.45;100308.34;4823175;29;20385;-82
2021/11/03 11:01:46;;;;;;;41.83;28.02;;;;;;;7.05;96.20;100309.06;4847079;29;20217;-82
2021/11/03 11:04:20;;;;;;;40.35;27.48;;;;;;;7.13;96.20;100311.41;4830966;29;20072;-82
2021/11/03 11:06:47;;;;;;;37.38;24.58;;;;;;;7.17;95.79;100312.13;4850430;29;20029;-82
2021/11/03 11:09:45;;;;;;;34.47;23.85;;;;;;;7.21;95.31;100309.38;4864708;29;20113;-82
2021/11/03 11:12:31;;;;;;;34.97;23.77;;;;;;;7.25;94.92;100305.75;4848417;29;20042;-82
2021/11/03 11:15:06;;;;;;;34.78;23.05;;;;;;;7.32;94.57;100303.78;4832043;29;20317;-82
2021/11/03 11:17:55;;;;;;;31.02;21.42;;;;;;;7.40;94.32;100303.50;4857675;29;20048;-82
2021/11/03 11:20:28;;;;;;;26.00;18.75;;;;;;;7.48;94.09;100304.09;4835391;29;20052;-81
2021/11/03 11:23:11;;;;;;;30.75;20.88;;;;;;;7.56;93.79;100306.41;4832938;29;20375;-82
2021/11/03 11:25:55;;;;;;;27.40;18.13;;;;;;;7.63;93.07;100311.34;4858611;29;20330;-82